Talmoon, Minnesota
Current Conditions -  °F | °C
As of 12:53 AM on Sunday 21 Dec 2014 (Local Time) from KFOZ Reporting Station
Haze Haze  
Wind Chill: 20°   Ceiling: 400
Heat Index: 28°   Visibility: 4mi
Dew Point: 27°   Wind: 8mph
Humidity: 93%   Direction: 170°S
Pressure: 29.95"   Gusts: NA
Location:  47.6°N, 93.77°W
Report Text: KFOZ 210653Z AUTO 17007KT 4SM BR OVC004 M02/M03 A2995 RMK AO2
Loading
Personal Weather Stations






























Interactive Weather Map New forecast layout! Learn more

10-Day Weather Forecast

Advertisements
Track Severe Weather on mobile